createdAt,value
2023-02-02T00:02:36.165Z,2.26
2023-02-02T00:05:37.689Z,2.27
2023-02-02T00:08:39.207Z,2.24
2023-02-02T00:11:41.896Z,2.22
2023-02-02T00:14:43.362Z,2.16
2023-02-02T00:17:44.878Z,2.11
2023-02-02T00:20:48.683Z,2.06
2023-02-02T00:23:50.739Z,2.04
2023-02-02T04:38:45.665Z,1.15
2023-02-02T04:41:47.877Z,1.11
2023-02-02T04:44:50.008Z,1.10
2023-02-02T04:47:51.346Z,1.15
2023-02-02T04:51:04.743Z,1.15
2023-02-02T04:54:07.254Z,1.13
2023-02-02T04:57:08.652Z,1.11
2023-02-02T05:00:11.851Z,1.12
2023-02-02T05:03:13.656Z,1.12
2023-02-02T05:06:16.879Z,1.11
2023-02-02T05:09:18.315Z,1.16
2023-02-02T05:12:19.844Z,1.20
2023-02-02T05:15:22.375Z,1.24
2023-02-02T05:18:24.892Z,1.23
2023-02-02T05:21:26.530Z,1.24
2023-02-02T05:24:28.042Z,1.25
2023-02-02T05:27:29.541Z,1.33
2023-02-02T05:30:33.401Z,1.39
2023-02-02T05:33:35.398Z,1.41
2023-02-02T05:36:36.809Z,1.37
2023-02-02T05:39:38.266Z,1.30
2023-02-02T05:42:39.703Z,1.22
2023-02-02T05:45:41.531Z,1.17
2023-02-02T05:48:43.095Z,1.20
2023-02-02T05:51:47.899Z,1.25
2023-02-02T05:54:49.395Z,1.23
2023-02-02T05:57:50.931Z,1.28
2023-02-02T06:00:53.471Z,1.30
2023-02-02T06:03:56.447Z,1.28
2023-02-02T06:06:58.051Z,1.27
2023-02-02T06:09:59.488Z,1.27
2023-02-02T06:13:00.959Z,1.21
2023-02-02T06:16:02.675Z,1.17
2023-02-02T06:19:04.225Z,1.09
2023-02-02T06:22:06.375Z,0.98
2023-02-02T06:25:08.436Z,0.92
2023-02-02T06:28:09.878Z,0.87
2023-02-02T06:31:11.676Z,0.83
2023-02-02T06:34:14.008Z,0.77
2023-02-02T06:37:15.547Z,0.74
2023-02-02T06:40:17.451Z,0.70
2023-02-02T06:43:19.403Z,0.68
2023-02-02T06:46:20.943Z,0.66
2023-02-02T06:49:22.445Z,0.71
2023-02-02T06:52:23.939Z,0.80
2023-02-02T06:55:25.820Z,0.92
2023-02-02T06:58:28.091Z,1.04
2023-02-02T07:01:29.637Z,1.15
2023-02-02T07:04:31.171Z,1.24
2023-02-02T07:07:34.330Z,1.34
2023-02-02T07:11:12.875Z,1.44
2023-02-02T07:13:59.659Z,1.55
2023-02-02T07:17:01.030Z,1.64
2023-02-02T07:20:02.489Z,1.69
2023-02-02T07:23:04.141Z,1.80
2023-02-02T07:26:08.757Z,1.92
2023-02-02T07:29:13.829Z,2.06
2023-02-02T07:32:15.278Z,2.19
2023-02-02T07:35:17.076Z,2.33
2023-02-02T07:38:18.990Z,2.44
2023-02-02T07:41:27.905Z,2.54
2023-02-02T07:44:29.373Z,2.66
2023-02-02T07:47:30.790Z,2.79
2023-02-02T07:50:32.322Z,2.95
2023-02-02T07:53:34.939Z,3.09
2023-02-02T07:56:37.573Z,3.19
2023-02-02T07:59:39.035Z,3.25
2023-02-02T08:02:40.463Z,3.30
2023-02-02T08:05:41.915Z,3.42
2023-02-02T08:08:43.857Z,3.56
2023-02-02T08:11:45.565Z,3.71
2023-02-02T08:14:48.144Z,3.74
2023-02-02T08:17:49.616Z,3.66
2023-02-02T08:20:52.039Z,3.55
2023-02-02T08:23:53.700Z,3.45
2023-02-02T08:26:55.115Z,3.33
2023-02-02T08:29:56.573Z,3.17
2023-02-02T08:32:57.968Z,3.08
2023-02-02T08:35:59.462Z,2.97
2023-02-02T08:39:03.551Z,2.88
2023-02-02T08:42:05.141Z,2.83
2023-02-02T08:46:01.674Z,2.85
2023-02-02T08:48:28.791Z,2.89
2023-02-02T08:51:30.578Z,2.96
2023-02-02T08:54:32.060Z,3.13
2023-02-02T08:57:34.079Z,3.53
2023-02-02T09:00:35.537Z,3.96
2023-02-02T09:03:39.587Z,4.38
2023-02-02T09:06:41.617Z,4.76
2023-02-02T09:10:43.889Z,4.97
2023-02-02T09:15:06.666Z,5.23
2023-02-02T09:19:28.254Z,5.52
2023-02-02T09:23:43.719Z,5.78
2023-02-02T09:28:06.282Z,5.92
2023-02-02T09:32:28.974Z,6.09
2023-02-02T09:36:51.603Z,6.23
2023-02-02T09:41:15.226Z,6.30
2023-02-02T09:45:54.722Z,6.34
2023-02-02T09:50:17.337Z,6.12
2023-02-02T09:54:46.797Z,6.04
2023-02-02T09:59:19.850Z,6.24
2023-02-02T10:03:49.360Z,6.37
2023-02-02T10:08:20.506Z,6.30
2023-02-02T10:13:02.621Z,6.32
2023-02-02T10:17:25.319Z,6.04
2023-02-02T10:22:20.416Z,5.75
2023-02-02T10:26:56.130Z,5.86
2023-02-02T10:31:18.720Z,6.05
2023-02-02T10:35:50.436Z,6.15
2023-02-02T10:40:13.010Z,6.20
2023-02-02T10:44:50.789Z,6.43
2023-02-02T10:49:15.831Z,6.58
2023-02-02T10:53:40.886Z,6.63
2023-02-02T10:58:01.846Z,6.51
2023-02-02T11:02:24.328Z,6.41
2023-02-02T11:06:45.444Z,6.16
2023-02-02T11:11:06.753Z,5.99
2023-02-02T11:15:41.045Z,5.89
2023-02-02T11:20:03.692Z,6.13
2023-02-02T11:24:21.912Z,6.45
2023-02-02T11:28:44.525Z,6.56
2023-02-02T11:33:25.465Z,6.31
2023-02-02T11:38:00.214Z,5.98
2023-02-02T11:42:15.397Z,5.77
2023-02-02T11:46:38.191Z,5.56
2023-02-02T11:51:03.609Z,5.42
2023-02-02T11:55:32.107Z,5.29
2023-02-02T11:59:57.452Z,5.09
2023-02-02T12:04:26.221Z,4.93
2023-02-02T12:08:48.856Z,4.84
2023-02-02T12:13:38.872Z,4.81
2023-02-02T12:18:13.271Z,4.86
2023-02-02T12:22:41.633Z,4.92
2023-02-02T12:27:16.922Z,4.98
2023-02-02T12:31:39.764Z,5.00
2023-02-02T12:36:00.684Z,4.99
2023-02-02T12:40:29.079Z,4.97
2023-02-02T12:44:51.593Z,4.97
2023-02-02T12:49:32.056Z,4.94
2023-02-02T12:54:32.813Z,4.89
2023-02-02T14:03:36.502Z,5.05
2023-02-02T14:08:18.741Z,4.89
2023-02-02T14:12:42.678Z,4.76
2023-02-02T14:17:13.165Z,4.70
2023-02-02T14:21:43.181Z,4.56
2023-02-02T14:26:12.041Z,4.42
2023-02-02T14:30:36.074Z,4.31
2023-02-02T14:35:01.356Z,4.23
2023-02-02T14:39:24.229Z,4.13
2023-02-02T14:44:15.533Z,4.05
2023-02-02T14:48:42.616Z,3.94
2023-02-02T14:53:06.686Z,3.88
2023-02-02T14:57:42.730Z,3.79
2023-02-02T15:02:06.709Z,3.71
2023-02-02T15:06:30.840Z,3.59
2023-02-02T15:10:54.920Z,3.46
2023-02-02T15:15:19.943Z,3.34
2023-02-02T15:20:02.124Z,3.22
2023-02-02T15:24:35.406Z,3.10
2023-02-02T15:29:19.044Z,3.15
2023-02-02T15:33:43.337Z,3.22
2023-02-02T15:38:07.558Z,3.26
2023-02-02T15:42:32.903Z,3.32
2023-02-02T15:47:09.864Z,3.41
2023-02-02T15:51:33.765Z,3.46
2023-02-02T15:56:00.599Z,3.42
2023-02-02T16:00:04.250Z,3.23
2023-02-02T16:04:37.211Z,3.07
2023-02-02T16:09:07.339Z,2.89
2023-02-02T16:13:31.258Z,2.73
2023-02-02T16:17:58.975Z,2.51
2023-02-02T16:22:28.580Z,2.26
2023-02-02T16:26:53.001Z,2.03
2023-02-02T16:31:28.939Z,1.89
2023-02-02T16:35:51.313Z,1.81
2023-02-02T16:40:15.227Z,1.78
2023-02-02T16:44:38.019Z,1.70
2023-02-02T16:49:16.557Z,1.62
2023-02-02T16:53:45.239Z,1.65
2023-02-02T16:58:00.433Z,1.63
2023-02-02T17:02:24.470Z,1.44
2023-02-02T17:06:53.112Z,1.35
2023-02-02T17:11:17.945Z,1.24
2023-02-02T17:15:41.985Z,1.07
2023-02-02T17:19:59.709Z,0.89
2023-02-02T17:23:58.881Z,0.65
2023-02-02T17:28:25.847Z,0.55
2023-02-02T17:32:50.900Z,0.57
2023-02-02T17:37:15.023Z,0.55
2023-02-02T17:41:38.993Z,0.64
2023-02-02T17:46:03.068Z,0.69
2023-02-02T17:50:27.849Z,0.74
2023-02-02T17:54:54.525Z,0.68
2023-02-02T17:59:18.525Z,0.68
2023-02-02T18:03:44.962Z,0.74
2023-02-02T18:08:08.909Z,0.96
2023-02-02T18:12:33.168Z,1.13
2023-02-02T18:16:57.312Z,1.20
2023-02-02T18:21:21.249Z,1.24
2023-02-02T18:25:38.317Z,1.22
2023-02-02T18:30:02.444Z,1.32
2023-02-02T18:34:26.744Z,1.40
2023-02-02T18:38:51.704Z,1.43
2023-02-02T18:43:15.708Z,1.44
2023-02-02T18:47:41.334Z,1.53
2023-02-02T18:52:05.911Z,1.57
2023-02-02T18:56:30.885Z,1.54
2023-02-02T19:00:54.941Z,1.55
2023-02-02T19:05:17.359Z,1.54
2023-02-02T19:09:41.426Z,1.59
2023-02-02T19:14:11.237Z,1.54
2023-02-02T19:18:35.208Z,1.53
2023-02-02T19:23:00.256Z,1.49
2023-02-02T19:27:25.080Z,1.57
2023-02-02T19:31:50.215Z,1.59
2023-02-02T19:36:19.089Z,1.57
2023-02-02T19:40:43.027Z,1.52
2023-02-02T19:45:07.116Z,1.48
2023-02-02T19:49:31.104Z,1.33
2023-02-02T19:53:55.093Z,1.21
2023-02-02T19:58:31.256Z,1.23
2023-02-02T20:03:03.905Z,1.19
2023-02-02T20:07:27.787Z,1.16
2023-02-02T20:11:57.493Z,1.06
2023-02-02T20:16:36.729Z,0.95
2023-02-02T20:21:09.552Z,1.02
2023-02-02T20:25:32.300Z,1.02
2023-02-02T20:29:58.966Z,0.99
2023-02-02T20:34:02.579Z,0.94
2023-02-02T20:38:26.597Z,0.93
2023-02-02T20:42:43.558Z,0.91
2023-02-02T20:47:07.783Z,0.82
2023-02-02T20:51:22.677Z,0.84
2023-02-02T20:55:46.832Z,0.74
2023-02-02T21:00:10.928Z,0.68
2023-02-02T21:04:27.601Z,0.63
2023-02-02T21:08:51.537Z,0.51
2023-02-02T21:13:15.426Z,0.36
2023-02-02T21:17:40.442Z,0.23
2023-02-02T21:22:04.585Z,0.13
2023-02-02T21:26:28.518Z,0.11
2023-02-02T21:30:52.611Z,0.07
2023-02-02T21:35:16.544Z,0.10
2023-02-02T21:39:52.527Z,0.11
2023-02-02T21:44:16.246Z,0.15
2023-02-02T21:48:40.052Z,0.15
2023-02-02T21:53:04.058Z,0.15
2023-02-02T21:57:29.010Z,0.16
2023-02-02T22:01:58.848Z,0.06
2023-02-02T22:06:05.889Z,-0.02
2023-02-02T22:10:29.594Z,-0.07
2023-02-02T22:15:08.543Z,-0.10
2023-02-02T22:19:32.595Z,-0.13
2023-02-02T22:23:56.603Z,-0.19
2023-02-02T22:28:20.662Z,-0.30
2023-02-02T22:32:45.788Z,-0.31
2023-02-02T22:37:09.873Z,-0.36
2023-02-02T22:41:33.839Z,-0.39
2023-02-02T22:45:57.785Z,-0.45
2023-02-02T22:50:24.120Z,-0.59
2023-02-02T22:54:33.254Z,-0.71
2023-02-02T22:58:36.803Z,-0.64
2023-02-02T23:03:00.827Z,-0.62
2023-02-02T23:07:25.089Z,-0.58
2023-02-02T23:12:09.094Z,-0.57
2023-02-02T23:16:32.587Z,-0.60
2023-02-02T23:20:56.580Z,-0.67
2023-02-02T23:25:20.652Z,-0.69
2023-02-02T23:29:44.516Z,-0.66
2023-02-02T23:34:08.427Z,-0.68
2023-02-02T23:38:32.370Z,-0.70
2023-02-02T23:42:56.207Z,-0.71
2023-02-02T23:47:20.158Z,-0.74
2023-02-02T23:51:44.334Z,-0.75
2023-02-02T23:56:07.350Z,-0.76
